Trumbauersville, PA (18970)

11:52 PM EST on December 24, 2014 (GMT -0500)
Milford Township | Change Station
CLOSE
Current Station
Personal Weather Station
Location: Quakertown, PA
Elevation: 544 ft
Nearby Weather Stations
Active Advisory: Special Statement

Elev 544 ft 40.42 °N, 75.44 °W | Updated 14 minutes ago

Overcast
Overcast
59.3 °F
Feels Like 59.3 °F
N
7.0
Wind Variable Wind from SE
Gusts 13.0 mph

Today
High -- | Low -- °F
--% Chance of Precip.
Yesterday
High -- | Low -- °F
Precip. -- in
7:22 AM 4:39 PM
Waxing Crescent, 13% visible
Pressure 29.52 in
Visibility 10.0 miles
Clouds Overcast 500 ft
Dew Point 56 °F
Humidity 90%
Rainfall 0.89 in
Snow Depth Not available.
UV 0 out of 12
Pollen .10 out of 12
Air Quality Not available.
Flu Activity Not available.
METAR KXLL 250435Z AUTO 22008KT 10SM OVC005 15/14 A2952 RMK AO2

More Conditions Fewer Conditions

Pressure 29.52 in
Visibility 10.0 miles
Clouds Overcast 500 ft
Dew Point 56 °F
Humidity 90%
Rainfall 0.89 in
Snow Depth Not available.
UV 0 out of 12
Pollen .10 out of 12
Air Quality Not available.
Flu Activity Not available.
METAR KXLL 250435Z AUTO 22008KT 10SM OVC005 15/14 A2952 RMK AO2

More Conditions Fewer Conditions

10-Day Weather Forecast

Almanac

Astronomy

Dec. 24, 2014 Rise Set
Actual Time
Civil Twilight
Nautical Twilight
Astronomical Twilight
Moon
Length of Visible Light
Length of Day
Tomorrow will be .
, % of the Moon is Illuminated

Today's Extremes

State Highs State Lows

Community

WunderPhotos

Upload Photos

1,780,238 photos uploaded!

WunderBlogs® & News

Nearby

Air Quality

  Air Quality AQ Index Pollutant
Not available.

Snow Depth

Station Depth Elevation

Earthquake Activity

City Distance Mag. Time & Date
Minimum magnitude displayed is 2.5.

Coastal Water Temperatures

Place Temperature

Nearby Weather Stations